Home > Products > Valid Products > TAF

000
FTUS42 KFFC 251700
TAFFTY
TAF
KFTY 251734Z 2518/2618 28004KT P6SM SCT040
     FM260300 00000KT P6SM FEW250
     FM260900 00000KT 6SM BR FEW250
     FM261500 27006KT P6SM FEW050=



000
FTUS42 KFFC 251700
TAFATL
TAF
KATL 251734Z 2518/2624 27007KT P6SM SCT040 SCT250
     FM260300 24003KT P6SM FEW250
     FM261500 26007KT P6SM FEW050=



000
FTUS42 KFFC 251700
TAFRYY
TAF
KRYY 251734Z 2518/2618 28004KT P6SM SCT040
     FM260300 00000KT P6SM FEW250
     FM260900 00000KT 6SM BR FEW250
     FM261500 27006KT P6SM FEW050=



000
FTUS42 KFFC 251700
TAFAHN
TAF
KAHN 251734Z 2518/2618 VRB03KT P6SM SCT040
     FM260300 00000KT P6SM FEW250
     FM260900 00000KT 5SM BR FEW250
     FM261500 26005KT P6SM FEW050=



000
FTUS42 KFFC 251700
TAFCSG
TAF
KCSG 251734Z 2518/2618 26007KT P6SM BKN040
      TEMPO 2519/2523 5SM -TSRA BKN035CB
     FM260000 23003KT P6SM SCT050
     FM260900 00000KT 5SM BR FEW060
     FM261400 26005KT P6SM FEW050=



000
FTUS42 KFFC 251700
TAFPDK
TAF
KPDK 251734Z 2518/2618 28004KT P6SM SCT040
     FM260300 00000KT P6SM FEW250
     FM260900 00000KT 6SM BR FEW250
     FM261500 27006KT P6SM FEW050=



000
FTUS42 KFFC 251700
TAFMCN
TAF
KMCN 251734Z 2518/2618 26007KT P6SM BKN040
      TEMPO 2519/2523 5SM -TSRA BKN035CB
     FM260000 23003KT P6SM SCT050
     FM260900 00000KT 5SM BR FEW060
     FM261400 26005KT P6SM FEW050=



000
FTUS42 KFFC 251600 AAB
TAFATL
TAF AMD
KATL 251643Z 2517/2618 27007KT P6SM SCT040
     FM260000 25004KT P6SM FEW050
     FM260900 25003KT 5SM BR FEW250
     FM261400 26006KT P6SM FEW025=



000
FTUS42 KFFC 251400 AAA
TAFMCN
TAF AMD
KMCN 251456Z 2515/2612 29005KT P6SM BKN025
     FM251700 26007KT P6SM BKN050
      TEMPO 2519/2523 5SM -TSRA BKN035CB
     FM260000 23003KT P6SM SCT050
     FM260900 00000KT 5SM BR FEW060=



000
FTUS42 KFFC 251300 AAA
TAFATL
TAF AMD
KATL 251353Z 2514/2618 29005KT P6SM SCT100
     FM251600 27007KT P6SM SCT040
     FM260000 25004KT P6SM FEW050
     FM260900 25003KT 5SM BR FEW250
     FM261400 26006KT P6SM FEW025=



000
FTUS42 KFFC 251200 AAA
TAFAHN
TAF AMD
KAHN 251245Z 2513/2612 00000KT 3SM BR SCT003
     FM251400 29005KT P6SM SCT020
     FM251600 26006KT P6SM SCT040
     FM260000 23003KT P6SM FEW050
     FM260900 00000KT 5SM BR FEW250=



000
FTUS42 KFFC 251100
TAFMCN
TAF
KMCN 251121Z 2512/2612 23003KT P6SM SCT045
     FM251500 26007KT P6SM BKN050
      TEMPO 2519/2523 5SM -TSRA BKN035CB
     FM260000 23003KT P6SM SCT050
     FM260900 00000KT 5SM BR FEW060=



000
FTUS42 KFFC 251100
TAFAHN
TAF
KAHN 251121Z 2512/2612 00000KT 3SM BR SCT003
      TEMPO 2512/2514 2SM BR BKN002
     FM251400 29005KT P6SM SCT020
     FM251600 26006KT P6SM SCT040
     FM260000 23003KT P6SM FEW050
     FM260900 00000KT 5SM BR FEW250=



000
FTUS42 KFFC 251100
TAFPDK
TAF
KPDK 251121Z 2512/2612 00000KT 5SM BR SCT005
     FM251400 29005KT P6SM SCT020
     FM251600 26006KT P6SM SCT040
     FM260000 23003KT P6SM FEW050
     FM260900 00000KT 4SM BR FEW250=



000
FTUS42 KFFC 251100
TAFRYY
TAF
KRYY 251121Z 2512/2612 00000KT 3SM BR SCT003
      TEMPO 2512/2514 BKN003
     FM251400 29005KT P6SM SCT020
     FM251600 26006KT P6SM SCT040
     FM260000 23003KT P6SM FEW050
     FM260900 00000KT 5SM BR FEW250=



000
FTUS42 KFFC 251100
TAFCSG
TAF
KCSG 251121Z 2512/2612 23003KT P6SM SCT045
     FM251500 26007KT P6SM BKN050
      TEMPO 2519/2523 5SM -TSRA BKN035CB
     FM260000 23003KT P6SM SCT050
     FM260900 00000KT 5SM BR FEW060=



000
FTUS42 KFFC 251100
TAFFTY
TAF
KFTY 251121Z 2512/2612 00000KT 6SM BR SCT005
     FM251400 29005KT P6SM SCT020
     FM251600 26006KT P6SM SCT040
     FM260000 23003KT P6SM FEW050
     FM260900 00000KT 5SM BR FEW250=



000
FTUS42 KFFC 251100
TAFATL
TAF
KATL 251121Z 2512/2618 29003KT 5SM BR SCT005
     FM251400 29005KT P6SM SCT020
     FM251600 26007KT P6SM SCT040
     FM260000 23004KT P6SM FEW050
     FM260900 23003KT 5SM BR FEW250
     FM261400 26006KT P6SM FEW025=



000
FTUS42 KFFC 250900 AAA
TAFMCN
TAF AMD
KMCN 250947Z 2510/2606 00000KT P6SM FEW040
     FM251100 00000KT 6SM BR SCT015
     FM251400 23004KT P6SM SCT025
     FM251600 26006KT P6SM SCT045 PROB30 2519/2523 5SM -TSRA
      BKN035CB
     FM260000 25005KT P6SM FEW050=



000
FTUS42 KFFC 250900 AAA
TAFAHN
TAF AMD
KAHN 250944Z 2510/2606 26003KT 6SM BR SCT070
     FM251100 00000KT 5SM BR SCT008
     FM251400 VRB03KT P6SM SCT025
     FM251600 28005KT P6SM SCT040
     FM260000 25003KT P6SM FEW050=



000
FTUS42 KFFC 250900 AAB
TAFFTY
TAF AMD
KFTY 250943Z 2510/2606 00000KT 6SM BR FEW010
     FM251100 00000KT 4SM BR BKN007
     FM251400 29005KT P6SM SCT020
     FM251600 28006KT P6SM SCT045
     FM260000 25003KT P6SM FEW050=



000
FTUS42 KFFC 250900 AAB
TAFATL
TAF AMD
KATL 250943Z 2510/2612 29003KT 6SM BR FEW010
     FM251100 29003KT 5SM BR BKN007
     FM251400 29005KT P6SM SCT020
     FM251600 28007KT P6SM SCT045
     FM260000 25004KT P6SM FEW050
     FM260900 24003KT 5SM BR FEW250=



000
FTUS42 KFFC 250900 AAB
TAFPDK
TAF AMD
KPDK 250943Z 2510/2606 00000KT 4SM BR FEW010
     FM251100 00000KT 4SM BR BKN007
     FM251400 29005KT P6SM SCT020
     FM251600 28006KT P6SM SCT045
     FM260000 25003KT P6SM FEW050=



000
FTUS42 KFFC 250800 AAA
TAFCSG
TAF AMD
KCSG 250850Z 2509/2606 26003KT P6SM VCSH BKN040
     FM251400 26004KT P6SM SCT020 BKN045
     FM251600 26006KT P6SM SCT050 PROB30 2519/2523 5SM -TSRA
      BKN035CB
     FM260000 23004KT P6SM FEW050=



000
FTUS42 KFFC 250800 AAA
TAFRYY
TAF AMD
KRYY 250848Z 2509/2606 29003KT P6SM FEW010
     FM251000 00000KT 4SM BR BKN007
     FM251400 29005KT P6SM SCT020
     FM251600 28006KT P6SM SCT045
     FM260000 25003KT P6SM FEW050
      AMD NOT SKED TIL 251200=



000
FTUS42 KFFC 250800 AAA
TAFPDK
TAF AMD
KPDK 250848Z 2509/2606 29004KT 4SM BR FEW010
     FM251000 00000KT 4SM BR BKN007
     FM251400 29005KT P6SM SCT020
     FM251600 28006KT P6SM SCT045
     FM260000 25003KT P6SM FEW050=



000
FTUS42 KFFC 250800 AAA
TAFFTY
TAF AMD
KFTY 250847Z 2509/2606 00000KT P6SM FEW010 SCT070
     FM251000 00000KT 3SM BR BKN006
     FM251400 29005KT P6SM SCT020
     FM251600 28006KT P6SM SCT045
     FM260000 25003KT P6SM FEW050=



000
FTUS42 KFFC 250700 AAA
TAFATL
TAF AMD
KATL 250731Z 2508/2612 29005KT P6SM FEW010 SCT070
     FM251000 29003KT 5SM BR BKN007
     FM251400 29005KT P6SM SCT020
     FM251600 28007KT P6SM SCT045
     FM260000 25004KT P6SM FEW050
     FM260900 24003KT 5SM BR FEW250=



000
FTUS42 KFFC 250500
TAFFTY
TAF
KFTY 250525Z 2506/2606 29002KT P6SM FEW010 SCT070
     FM250900 00000KT 3SM BR BKN006
     FM251400 29005KT P6SM SCT020
     FM251600 28006KT P6SM SCT045
     FM260000 25003KT P6SM FEW050=



000
FTUS42 KFFC 250500
TAFMCN
TAF
KMCN 250525Z 2506/2606 24004KT P6SM FEW015 SCT060
     FM250900 00000KT 5SM BR SCT010
     FM251400 23004KT P6SM SCT025
     FM251600 26006KT P6SM SCT045 PROB30 2519/2523 5SM -TSRA
      BKN035CB
     FM260000 25005KT P6SM FEW050=



000
FTUS42 KFFC 250500
TAFPDK
TAF
KPDK 250525Z 2506/2606 29004KT P6SM FEW010 SCT070
     FM250900 00000KT 4SM BR BKN006
     FM251400 29005KT P6SM SCT020
     FM251600 28006KT P6SM SCT045
     FM260000 25003KT P6SM FEW050=



000
FTUS42 KFFC 250500
TAFCSG
TAF
KCSG 250525Z 2506/2606 29003KT P6SM FEW015 SCT060
     FM250900 00000KT 5SM BR SCT010
     FM251400 27004KT P6SM SCT025
     FM251600 26006KT P6SM SCT045 PROB30 2519/2523 5SM -TSRA
      BKN035CB
     FM260000 24005KT P6SM FEW050=



000
FTUS42 KFFC 250500
TAFRYY
TAF
KRYY 250525Z 2506/2606 29003KT P6SM FEW010 SCT070
     FM250900 00000KT 4SM BR BKN006
     FM251400 29005KT P6SM SCT020
     FM251600 28006KT P6SM SCT045
     FM260000 25003KT P6SM FEW050
      AMD NOT SKED TIL 251200=



000
FTUS42 KFFC 250500
TAFAHN
TAF
KAHN 250525Z 2506/2606 26003KT P6SM FEW010 SCT070
     FM250900 00000KT 5SM BR SCT008
     FM251400 VRB03KT P6SM SCT025
     FM251600 28005KT P6SM SCT040
     FM260000 25003KT P6SM FEW050=



000
FTUS42 KFFC 250500
TAFATL
TAF
KATL 250525Z 2506/2612 30005KT P6SM FEW010 SCT070
     FM250900 29003KT 4SM BR BKN006
     FM251400 29005KT P6SM SCT020
     FM251600 28007KT P6SM SCT045
     FM260000 25004KT P6SM FEW050
     FM260900 24003KT 5SM BR FEW250=



000
FTUS42 KFFC 250300 AAB
TAFATL
TAF AMD
KATL 250350Z 2504/2606 25006KT P6SM BKN080
     FM250800 29004KT 4SM BR BKN006
     FM251400 28007KT P6SM SCT020
     FM251600 30007KT P6SM SCT040
     FM260000 29005KT P6SM SKC=



000
FTUS42 KFFC 250100 AAA
TAFATL
TAF AMD
KATL 250154Z 2502/2606 24006KT P6SM FEW040 BKN080
     FM250800 29004KT 4SM BR BKN006
     FM251400 28007KT P6SM SCT020
     FM251600 30007KT P6SM SCT040
     FM260000 29005KT P6SM SKC=



000
FTUS42 KFFC 242300
TAFCSG
TAF
KCSG 242337Z 2500/2524 26007KT P6SM SCT050 BKN100
     FM250300 VRB03KT P6SM VCSH SCT035 SCT120
     FM250800 00000KT 5SM BR SCT120
     FM251400 25006KT P6SM SCT045=



000
FTUS42 KFFC 242300
TAFRYY
TAF
KRYY 242337Z 2500/2524 29010KT P6SM VCSH BKN045
     FM250200 VRB03KT P6SM SCT120
     FM250800 VRB03KT 3SM BR BKN006
     FM251400 28005KT P6SM SCT020
     FM251600 30006KT P6SM SCT040
      AMD NOT SKED 2504/2512=



000
FTUS42 KFFC 242300
TAFFTY
TAF
KFTY 242337Z 2500/2524 25007KT P6SM VCSH SCT030 BKN100
     FM250200 VRB03KT P6SM SCT120
     FM250800 VRB03KT 3SM BR BKN006
     FM251400 28005KT P6SM SCT020
     FM251600 30006KT P6SM SCT040=



000
FTUS42 KFFC 242300
TAFAHN
TAF
KAHN 242337Z 2500/2524 26005KT P6SM SCT050 BKN100
     FM250800 VRB03KT 5SM BR SCT120
     FM251400 27004KT P6SM SCT030
     FM251600 30006KT P6SM SCT040=



000
FTUS42 KFFC 242300
TAFMCN
TAF
KMCN 242337Z 2500/2524 25005KT P6SM SCT100
     FM250300 VRB03KT P6SM VCSH SCT035 SCT120
     FM250800 00000KT 5SM BR SCT120
     FM251400 25006KT P6SM SCT045=



000
FTUS42 KFFC 242300
TAFPDK
TAF
KPDK 242337Z 2500/2524 25007KT P6SM VCSH SCT050 BKN100
     FM250200 VRB03KT P6SM SCT120
     FM250800 VRB03KT 3SM BR BKN006
     FM251400 28005KT P6SM SCT020
     FM251600 30006KT P6SM SCT040=



000
FTUS42 KFFC 242300
TAFATL
TAF
KATL 242337Z 2500/2606 25008G16KT P6SM VCSH SCT030 BKN080
     FM250200 28006KT P6SM SCT120
     FM250800 29004KT 4SM BR BKN006
     FM251400 28007KT P6SM SCT020
     FM251600 30007KT P6SM SCT040
     FM260000 29005KT P6SM SKC=



000
FTUS42 KFFC 242100 AAC
TAFFTY
TAF AMD
KFTY 242151Z 2422/2518 24012G16KT 3SM TSRA BKN025CB OVC060
      TEMPO 2422/2423 VRB15G28KT 1/2SM TSRA BKN012CB
     FM250000 29005KT P6SM VCSH SCT050 BKN100
     FM250200 00000KT P6SM SCT120
     FM251100 00000KT 5SM BR SCT120
     FM251400 27004KT P6SM SCT060=



000
FTUS42 KFFC 242100 AAB
TAFATL
TAF AMD
KATL 242139Z 2422/2524 25009KT 5SM -RA BKN035 BKN060
      TEMPO 2422/2423 VRB15G30KT 1/2SM TSRA BKN012CB
     FM250000 29008KT P6SM VCSH BKN050 BKN100
     FM250200 28004KT P6SM SCT120
     FM251400 27006KT P6SM SCT060=



000
FTUS42 KFFC 242100 AAB
TAFFTY
TAF AMD
KFTY 242136Z 2422/2518 24006KT P6SM VCSH BKN035 BKN060
      TEMPO 2422/2423 VRB12G22KT 1/2SM TSRA BKN012CB
     FM250000 29005KT P6SM VCSH SCT050 BKN100
     FM250200 00000KT P6SM SCT120
     FM251100 00000KT 5SM BR SCT120
     FM251400 27004KT P6SM SCT060=



000
FTUS42 KFFC 241900 AAA
TAFATL
TAF AMD
KATL 241950Z 2420/2524 25009KT P6SM VCSH SCT035 BKN060
      TEMPO 2420/2424 VRB10G20KT 5SM -TSRA BR BKN035CB
     FM250000 29008KT P6SM VCSH SCT050 BKN100
     FM250200 28004KT P6SM SCT120
     FM251400 27006KT P6SM SCT060=



000
FTUS42 KFFC 241900 AAA
TAFPDK
TAF AMD
KPDK 241944Z 2420/2518 26008KT P6SM VCSH SCT035 BKN060
      TEMPO 2420/2424 VRB10G20KT 5SM -TSRA BR BKN035CB
     FM250000 29005KT P6SM VCSH SCT050 BKN100
     FM250200 00000KT P6SM SCT120
     FM251100 00000KT 5SM BR SCT120
     FM251400 27004KT P6SM SCT060=



000
FTUS42 KFFC 241900 AAA
TAFAHN
TAF AMD
KAHN 241943Z 2420/2518 26008KT P6SM VCSH SCT035 BKN060
      TEMPO 2420/2424 VRB10G20KT 5SM -TSRA BR BKN035CB
     FM250000 26005KT P6SM VCSH SCT050 BKN100
     FM250200 00000KT P6SM SCT120
     FM250800 00000KT 5SM BR SCT120
     FM251400 27004KT P6SM SCT060=



000
FTUS42 KFFC 241900 AAA
TAFRYY
TAF AMD
KRYY 241943Z 2420/2518 24008KT P6SM VCSH SCT035 BKN060
      TEMPO 2420/2424 VRB10G20KT 5SM -TSRA BR BKN035CB
     FM250000 29005KT P6SM VCSH SCT050 BKN100
     FM250200 00000KT P6SM SCT120
     FM251100 00000KT 5SM BR SCT120
     FM251400 27004KT P6SM SCT060=



000
FTUS42 KFFC 241900 AAA
TAFFTY
TAF AMD
KFTY 241942Z 2420/2518 24006KT P6SM VCSH SCT035 BKN060
      TEMPO 2420/2424 VRB10G20KT 5SM -TSRA BR BKN035CB
     FM250000 29005KT P6SM VCSH SCT050 BKN100
     FM250200 00000KT P6SM SCT120
     FM251100 00000KT 5SM BR SCT120
     FM251400 27004KT P6SM SCT060=



000
FTUS42 KFFC 241700
TAFAHN
TAF
KAHN 241737Z 2418/2518 26008G16KT P6SM VCSH SCT035 BKN060
      TEMPO 2418/2422 5SM -TSRA BR BKN035CB
     FM250000 26005KT P6SM VCSH SCT050 BKN100
     FM250200 00000KT P6SM SCT120
     FM250800 00000KT 5SM BR SCT120
     FM251400 27004KT P6SM SCT060=



000
FTUS42 KFFC 241700
TAFRYY
TAF
KRYY 241737Z 2418/2518 26008G16KT P6SM VCSH SCT035 BKN060
      TEMPO 2418/2422 5SM -TSRA BR BKN035CB
     FM250000 29005KT P6SM VCSH SCT050 BKN100
     FM250200 00000KT P6SM SCT120
     FM251100 00000KT 5SM BR SCT120
     FM251400 27004KT P6SM SCT060=



000
FTUS42 KFFC 241700
TAFCSG
TAF
KCSG 241737Z 2418/2518 26010G16KT P6SM VCSH SCT035 BKN060
     FM250000 26005KT P6SM VCSH SCT050 BKN100
     FM250400 00000KT P6SM SCT120
     FM251100 00000KT 5SM BR SCT120
     FM251400 25004KT P6SM SCT060=



000
FTUS42 KFFC 241700
TAFATL
TAF
KATL 241737Z 2418/2524 26010G18KT P6SM VCSH SCT035 BKN060
      TEMPO 2418/2422 5SM -TSRA BR BKN035CB
     FM250000 29008KT P6SM VCSH SCT050 BKN100
     FM250200 28004KT P6SM SCT120
     FM251400 27006KT P6SM SCT060=



000
FTUS42 KFFC 241700
TAFPDK
TAF
KPDK 241737Z 2418/2518 26008G16KT P6SM VCSH SCT035 BKN060
      TEMPO 2418/2422 5SM -TSRA BR BKN035CB
     FM250000 29005KT P6SM VCSH SCT050 BKN100
     FM250200 00000KT P6SM SCT120
     FM251100 00000KT 5SM BR SCT120
     FM251400 27004KT P6SM SCT060=



000
FTUS42 KFFC 241700
TAFMCN
TAF
KMCN 241737Z 2418/2518 25008G16KT P6SM VCSH SCT035 BKN060
     FM250000 26005KT P6SM VCSH SCT050 BKN100
     FM250400 00000KT P6SM SCT120
     FM250900 00000KT 5SM BR SCT120
     FM251400 25004KT P6SM SCT060=



000
FTUS42 KFFC 241700
TAFFTY
TAF
KFTY 241737Z 2418/2518 26008G16KT P6SM VCSH SCT035 BKN060
      TEMPO 2418/2422 5SM -TSRA BR BKN035CB
     FM250000 29005KT P6SM VCSH SCT050 BKN100
     FM250200 00000KT P6SM SCT120
     FM251100 00000KT 5SM BR SCT120
     FM251400 27004KT P6SM SCT060=



000
FTUS42 KFFC 241600 AAB
TAFATL
TAF AMD
KATL 241600Z 2416/2518 26008KT P6SM SCT030 SCT100
     FM241700 27009G18KT P6SM VCSH BKN050
      TEMPO 2418/2422 5SM -TSRA BR BKN035CB
     FM242200 30007KT P6SM VCSH SCT050 BKN100
     FM250200 29004KT P6SM SCT120 BKN250
     FM251500 28006KT P6SM SCT040=



000
FTUS42 KFFC 241400 AAA
TAFATL
TAF AMD
KATL 241401Z 2414/2518 26007KT P6SM SCT100
     FM241700 27009G18KT P6SM VCSH BKN050
      TEMPO 2418/2422 5SM -TSRA BR BKN035CB
     FM242200 30007KT P6SM VCSH SCT050 BKN100
     FM250200 29004KT P6SM SCT120 BKN250
     FM251500 28006KT P6SM SCT040=



000
FTUS42 KFFC 241100
TAFMCN
TAF
KMCN 241126Z 2412/2512 24004KT 6SM BR FEW035
     FM241500 25006KT P6SM SCT040
     FM241800 26008G16KT P6SM VCSH BKN045
     FM250200 27006KT P6SM VCSH BKN050
     FM250500 28005KT P6SM SCT060 BKN100=



000
FTUS42 KFFC 241100
TAFFTY
TAF
KFTY 241126Z 2412/2512 23003KT 6SM BR FEW040
     FM241400 26006KT P6SM BKN040
     FM241700 27008G16KT P6SM VCSH BKN050
     FM242300 30006KT P6SM VCSH SCT050 BKN100
     FM250300 29004KT P6SM SCT120 BKN250=



000
FTUS42 KFFC 241100
TAFPDK
TAF
KPDK 241126Z 2412/2512 24003KT 5SM BR FEW040
     FM241400 26006KT P6SM BKN040
     FM241700 27008G16KT P6SM VCSH BKN050
     FM242300 30006KT P6SM VCSH SCT050 BKN100
     FM250300 29004KT P6SM SCT120 BKN250=



000
FTUS42 KFFC 241100
TAFRYY
TAF
KRYY 241126Z 2412/2512 23005KT P6SM SCT050
     FM241500 26006KT P6SM BKN040
     FM241700 27008G16KT P6SM VCSH BKN050
     FM242300 30006KT P6SM VCSH SCT050 BKN100
     FM250300 29004KT P6SM SCT120 BKN250=



000
FTUS42 KFFC 241100
TAFAHN
TAF
KAHN 241126Z 2412/2512 25004KT 5SM BR FEW035
     FM241500 26006KT P6SM BKN040
     FM241700 26008G16KT P6SM VCSH BKN050
     FM242300 29006KT P6SM VCSH SCT050 BKN100
     FM250300 28004KT P6SM SCT120 BKN250=



000
FTUS42 KFFC 241100
TAFATL
TAF
KATL 241126Z 2412/2518 24005KT P6SM FEW040 SCT100
     FM241400 26007KT P6SM BKN040
     FM241700 27009G18KT P6SM VCSH BKN050
      TEMPO 2418/2422 5SM -TSRA BR BKN035CB
     FM242200 30007KT P6SM VCSH SCT050 BKN100
     FM250200 29004KT P6SM SCT120 BKN250
     FM251500 28006KT P6SM SCT040=



000
FTUS42 KFFC 241100
TAFCSG
TAF
KCSG 241126Z 2412/2512 24003KT P6SM FEW040
     FM241500 24006KT P6SM SCT040
     FM241800 26008G16KT P6SM VCSH BKN045
     FM250200 28006KT P6SM VCSH BKN050
     FM250500 29005KT P6SM SCT060 BKN100=



000
FTUS42 KFFC 240700 AAA
TAFATL
TAF AMD
KATL 240733Z 2408/2512 26004KT P6SM FEW250
     FM241000 26004KT 6SM BR SCT035
     FM241500 26007KT P6SM BKN040
     FM241700 27009G18KT P6SM VCSH BKN045 PROB30 2418/2422 5SM TSRA
      BR BKN025CB
     FM242200 30007KT P6SM VCSH SCT050 BKN100
     FM250200 29005KT P6SM SCT120 BKN250=



000
FTUS42 KFFC 240500
TAFAHN
TAF
KAHN 240538Z 2406/2506 00000KT P6SM FEW035
     FM240900 23003KT 6SM BR SCT025
     FM241500 26006KT P6SM BKN035
     FM241700 26008G16KT P6SM VCSH BKN045 PROB30 2418/2423 5SM TSRA
      BR BKN025CB
     FM242300 29006KT P6SM VCSH SCT050 BKN100
     FM250300 28004KT P6SM SCT120 BKN250=



000
FTUS42 KFFC 240500
TAFCSG
TAF
KCSG 240538Z 2406/2506 00000KT P6SM FEW035
     FM240900 23003KT 6SM BR SCT025
     FM241500 24006KT P6SM BKN035
     FM241800 25008G16KT P6SM VCSH BKN045 PROB30 2420/2502 5SM TSRA
      BR BKN025CB
     FM250200 28006KT P6SM VCSH BKN050
     FM250500 29005KT P6SM SCT050 BKN100=



000
FTUS42 KFFC 240500
TAFPDK
TAF
KPDK 240538Z 2406/2506 00000KT P6SM FEW035
     FM240900 23003KT 6SM BR SCT025
     FM241500 26006KT P6SM BKN035
     FM241700 27008G16KT P6SM VCSH BKN045 PROB30 2418/2423 5SM TSRA
      BR BKN025CB
     FM242300 30006KT P6SM VCSH SCT050 BKN100
     FM250300 29004KT P6SM SCT120 BKN250=



000
FTUS42 KFFC 240500
TAFATL
TAF
KATL 240538Z 2406/2512 26004KT P6SM SCT040 SCT100
     FM240900 25004KT 6SM BR SCT025
     FM241500 26007KT P6SM BKN035
     FM241700 27009G18KT P6SM VCSH BKN045 PROB30 2418/2423 5SM TSRA
      BR BKN025CB
     FM242300 30007KT P6SM VCSH SCT050 BKN100
     FM250300 29005KT P6SM SCT120 BKN250=



000
FTUS42 KFFC 240500
TAFRYY
TAF
KRYY 240538Z 2406/2506 00000KT P6SM FEW035
     FM240900 23003KT 6SM BR SCT025
     FM241500 26006KT P6SM BKN035
     FM241700 27008G16KT P6SM VCSH BKN045 PROB30 2418/2423 5SM TSRA
      BR BKN025CB
     FM242300 30006KT P6SM VCSH SCT050 BKN100
     FM250300 29004KT P6SM SCT120 BKN250
      AMD NOT SKED TIL 241200=



000
FTUS42 KFFC 240500
TAFMCN
TAF
KMCN 240538Z 2406/2506 00000KT P6SM FEW035
     FM240900 23003KT 5SM BR SCT025
     FM241500 24006KT P6SM BKN035
     FM241800 25008G16KT P6SM VCSH BKN045 PROB30 2420/2502 5SM TSRA
      BR BKN025CB
     FM250200 26006KT P6SM VCSH BKN050
     FM250500 28005KT P6SM SCT050 BKN100=



000
FTUS42 KFFC 240500
TAFFTY
TAF
KFTY 240538Z 2406/2506 00000KT P6SM FEW035
     FM240900 23003KT 6SM BR SCT025
     FM241500 26006KT P6SM BKN035
     FM241700 27008G16KT P6SM VCSH BKN045 PROB30 2418/2423 5SM TSRA
      BR BKN025CB
     FM242300 30006KT P6SM VCSH SCT050 BKN100
     FM250300 29004KT P6SM SCT120 BKN250=



000
FTUS42 KFFC 240300 AAB
TAFATL
TAF AMD
KATL 240354Z 2404/2506 25004KT P6SM SCT040 SCT100
     FM240800 23005KT P6SM SCT025
     FM241400 26007KT P6SM BKN025
     FM241600 28008G16KT 6SM -SHRA BKN035 PROB30 2416/2421 5SM TSRA
      BR BKN025CB
     FM242100 30007KT P6SM BKN035
     FM250200 29005KT P6SM BKN025=



000
FTUS42 KFFC 240100 AAA
TAFATL
TAF AMD
KATL 240159Z 2402/2506 25004KT P6SM FEW040 SCT100
     FM240800 23005KT P6SM SCT025
     FM241400 26007KT P6SM BKN025
     FM241600 28008G16KT 6SM -SHRA BKN035 PROB30 2416/2421 5SM TSRA
      BR BKN025CB
     FM242100 30007KT P6SM BKN035
     FM250200 29005KT P6SM BKN025=



000
FTUS42 KFFC 232300
TAFCSG
TAF
KCSG 232331Z 2400/2424 24006KT P6SM SCT045
     FM240700 VRB03KT 4SM BR FEW025
     FM241400 26007KT P6SM BKN025
     FM241600 28008G16KT P6SM BKN035 PROB30 2417/2422 5SM TSRA BR
      BKN025CB
     FM242200 30007KT P6SM BKN035=



000
FTUS42 KFFC 232300
TAFMCN
TAF
KMCN 232331Z 2400/2424 VRB03KT P6SM SCT040
     FM240700 VRB03KT 4SM BR FEW025
     FM241400 26007KT P6SM BKN025
     FM241600 28008G16KT P6SM BKN035 PROB30 2417/2422 5SM TSRA BR
      BKN025CB
     FM242200 30007KT P6SM BKN035=



000
FTUS42 KFFC 232300
TAFFTY
TAF
KFTY 232331Z 2400/2424 27004KT P6SM VCSH SCT040 SCT100
     FM240200 25004KT P6SM SCT035 SCT080
     FM240800 23005KT P6SM SCT025
     FM241400 26007KT P6SM BKN025
     FM241600 28008G16KT 6SM -SHRA BKN035 PROB30 2416/2421 5SM TSRA
      BR BKN025CB
     FM242100 30007KT P6SM BKN035=



000
FTUS42 KFFC 232300
TAFPDK
TAF
KPDK 232331Z 2400/2424 32008KT P6SM SCT040 BKN080
     FM240200 25004KT P6SM SCT035 SCT080
     FM240800 23005KT P6SM SCT025
     FM241400 26007KT P6SM BKN025
     FM241600 28008G16KT 6SM -SHRA BKN035 PROB30 2416/2421 5SM TSRA
      BR BKN025CB
     FM242100 30007KT P6SM BKN035=



000
FTUS42 KFFC 232300
TAFRYY
TAF
KRYY 232331Z 2400/2424 26006KT P6SM VCSH SCT040 BKN080
     FM240200 25004KT P6SM SCT035 SCT080
     FM240800 23005KT P6SM SCT025
     FM241600 28008G16KT 6SM -SHRA BKN035 PROB30 2416/2421 5SM TSRA
      BR BKN025CB
     FM242100 30007KT P6SM BKN035
      AMD NOT SKED 2404/2412=



000
FTUS42 KFFC 232300
TAFATL
TAF
KATL 232331Z 2400/2506 28006KT P6SM VCSH SCT040 SCT100
     FM240200 25004KT P6SM SCT035 SCT080
     FM240800 23005KT P6SM SCT025
     FM241400 26007KT P6SM BKN025
     FM241600 28008G16KT 6SM -SHRA BKN035 PROB30 2416/2421 5SM TSRA
      BR BKN025CB
     FM242100 30007KT P6SM BKN035
     FM250200 29005KT P6SM BKN025=



000
FTUS42 KFFC 232300
TAFAHN
TAF
KAHN 232331Z 2400/2424 28004KT P6SM SCT040 SCT080
     FM240800 24004KT 5SM BR SCT025
     FM241500 25008KT P6SM BKN030
     FM241700 27009G15KT 6SM -SHRA BKN035 PROB30 2417/2422 5SM TSRA
      BR BKN025CB
     FM242200 30007KT P6SM BKN035=



000
FTUS42 KFFC 232100 AAB
TAFATL
TAF AMD
KATL 232159Z 2322/2424 22005KT P6SM VCSH SCT040 BKN090
     FM240000 29004KT P6SM SCT040
     FM240700 25004KT P6SM SCT025
     FM241400 26007KT P6SM BKN025
     FM241600 28008G15KT 6SM -SHRA BKN035 PROB30 2416/2421 5SM TSRA
      BR BKN025CB
     FM242100 30007KT P6SM BKN035=



000
FTUS42 KFFC 231900 AAA
TAFATL
TAF AMD
KATL 231945Z 2320/2424 22005KT P6SM VCSH SCT040 BKN090
     FM240000 29004KT P6SM SCT040
     FM240700 25004KT P6SM SCT025
     FM241400 26007KT P6SM BKN025
     FM241600 28008G15KT 6SM -SHRA BKN035 PROB30 2416/2421 5SM TSRA
      BR BKN025CB
     FM242100 30007KT P6SM BKN035=



000
FTUS42 KFFC 231900 AAA
TAFCSG
TAF AMD
KCSG 231941Z 2320/2418 26006KT P6SM VCSH BKN045
     FM240000 28004KT P6SM SCT045
     FM241500 25008G15KT P6SM BKN035
     FM241700 25008G15KT P6SM VCSH BKN035=



000
FTUS42 KFFC 231900 AAA
TAFMCN
TAF AMD
KMCN 231940Z 2320/2418 07004KT P6SM SCT035 BKN045
      TEMPO 2320/2323 5SM TSRA BR BKN035CB
     FM232300 29005KT P6SM SCT040
     FM240300 35003KT P6SM FEW045
     FM240700 27003KT P6SM FEW025
     FM241600 25008G15KT P6SM VCSH BKN045=



000
FTUS42 KFFC 231700
TAFFTY
TAF
KFTY 231733Z 2318/2418 25005KT P6SM VCSH BKN030
     FM232000 25006KT P6SM VCSH BKN040
     FM240000 28004KT P6SM SCT040
     FM240800 23005KT P6SM SCT025
     FM241100 24005KT P6SM BKN025
     FM241500 27008G13KT 6SM -SHRA BKN030 PROB30 2416/2418 5SM TSRA
      BR BKN025CB=



000
FTUS42 KFFC 231700
TAFCSG
TAF
KCSG 231733Z 2318/2418 26006KT P6SM SCT040
     FM240000 28004KT P6SM SCT045
     FM241500 25008G15KT P6SM BKN035
     FM241700 25008G15KT P6SM VCSH BKN035=



000
FTUS42 KFFC 231700
TAFAHN
TAF
KAHN 231733Z 2318/2418 26005KT P6SM SCT030 BKN060
     FM232000 27006KT P6SM VCSH BKN040
     FM240000 28004KT P6SM SCT040
     FM241000 24004KT 5SM BR SCT025
     FM241500 25008KT P6SM BKN030
     FM241700 27009G15KT 6SM -SHRA BKN035=



000
FTUS42 KFFC 231700
TAFATL
TAF
KATL 231733Z 2318/2424 27005KT P6SM VCSH BKN035
     FM232000 26006KT P6SM VCSH BKN040
     FM240000 29004KT P6SM SCT040
     FM240700 25004KT P6SM SCT025
     FM241400 26007KT P6SM BKN025
     FM241600 28008G15KT 6SM -SHRA BKN035 PROB30 2416/2421 5SM TSRA
      BR BKN025CB
     FM242100 30007KT P6SM BKN035=



000
FTUS42 KFFC 231700
TAFPDK
TAF
KPDK 231733Z 2318/2418 26005KT P6SM VCSH SCT030 BKN060
     FM232000 25006KT P6SM VCSH BKN040
     FM240000 28004KT P6SM SCT040
     FM240800 24004KT P6SM SCT025
     FM241100 24005KT 6SM BR BKN025
     FM241300 25006KT 6SM BR BKN025
     FM241500 26008G15KT 6SM -SHRA BKN030 PROB30 2416/2418 5SM TSRA
      BR BKN025CB=



000
FTUS42 KFFC 231700
TAFMCN
TAF
KMCN 231733Z 2318/2418 25006KT P6SM SCT035 BKN050
     FM232300 29005KT P6SM SCT040
     FM240300 35003KT P6SM FEW045
     FM240700 27003KT P6SM FEW025
     FM241600 25008G15KT P6SM VCSH BKN045=



000
FTUS42 KFFC 231700
TAFRYY
TAF
KRYY 231733Z 2318/2418 24005KT P6SM VCSH SCT030 BKN060
     FM232000 23006KT P6SM VCSH BKN040
     FM240000 26004KT P6SM SCT040
     FM240900 23005KT P6SM BKN025
     FM241500 26008G15KT 6SM -SHRA BKN030 PROB30 2416/2418 5SM TSRA
      BR BKN025CB=



000
FTUS42 KFFC 231500 AAB
TAFATL
TAF AMD
KATL 231536Z 2316/2418 27004KT P6SM VCSH SCT025
     FM231700 26006KT P6SM VCSH SCT035 BKN050
     FM240000 29005KT P6SM SCT040 SCT080
     FM240900 27005KT P6SM SCT020
     FM241500 27008KT P6SM BKN035=



000
FTUS42 KFFC 231500 AAB
TAFPDK
TAF AMD
KPDK 231532Z 2316/2412 07003KT P6SM VCSH FEW025 SCT060 BKN090
     FM231700 27005KT P6SM VCSH SCT035 BKN050
     FM240000 00000KT P6SM SCT040 SCT080
     FM240900 00000KT P6SM SCT020=



000
FTUS42 KFFC 231400 AAA
TAFPDK
TAF AMD
KPDK 231454Z 2315/2412 00000KT P6SM VCSH SCT015
     FM231700 27005KT P6SM VCSH SCT035 BKN050
     FM240000 00000KT P6SM SCT040 SCT080
     FM240900 00000KT P6SM SCT020=



000
FTUS42 KFFC 231400 CCA
TAFPDK
TAF COR
KPDK 231454Z 2315/2412 00000KT P6SM VCSH BKN015
     FM231700 27005KT P6SM VCSH SCT035 BKN050
     FM240000 00000KT P6SM SCT040 SCT080
     FM240900 00000KT P6SM SCT020=



000
FTUS42 KFFC 231400 AAA
TAFRYY
TAF AMD
KRYY 231454Z 2315/2412 00000KT P6SM VCSH BKN020
     FM231700 27005KT P6SM VCSH SCT035 BKN050
     FM240000 00000KT P6SM SCT040 SCT080
     FM240900 00000KT P6SM BKN025=



000
FTUS42 KFFC 231300 AAA
TAFATL
TAF AMD
KATL 231347Z 2314/2418 27004KT P6SM SCT025
     FM231700 26006KT P6SM VCSH SCT035 BKN050
     FM240000 29005KT P6SM SCT040 SCT080
     FM240900 27005KT P6SM SCT020
     FM241500 27008KT P6SM BKN035=



000
FTUS42 KFFC 231100
TAFCSG
TAF
KCSG 231127Z 2312/2412 00000KT P6SM FEW006 SCT030
     FM231400 23003KT P6SM SCT035
     FM231700 25005KT P6SM VCSH SCT035 BKN050
     FM240000 00000KT P6SM SCT120=



000
FTUS42 KFFC 231100
TAFATL
TAF
KATL 231127Z 2312/2418 14003KT P6SM FEW006 SCT035
     FM231400 27004KT P6SM SCT035
     FM231700 26006KT P6SM VCSH SCT035 BKN050
     FM240000 29005KT P6SM SCT040 SCT080
     FM240900 27005KT P6SM SCT020
     FM241500 27008KT P6SM BKN035=



000
FTUS42 KFFC 231100
TAFPDK
TAF
KPDK 231127Z 2312/2412 00000KT P6SM FEW006 BKN040
     FM231400 00000KT P6SM SCT035
     FM231700 27005KT P6SM VCSH SCT035 BKN050
     FM240000 00000KT P6SM SCT040 SCT080
     FM240900 00000KT P6SM SCT020=



000
FTUS42 KFFC 231100
TAFAHN
TAF
KAHN 231127Z 2312/2412 00000KT P6SM FEW007 BKN035
     FM231400 00000KT P6SM SCT035
     FM231700 25005KT P6SM VCSH SCT035 BKN050
     FM240000 25003KT P6SM SCT040 SCT080
     FM240900 00000KT P6SM SCT020=



000
FTUS42 KFFC 231100
TAFRYY
TAF
KRYY 231127Z 2312/2412 00000KT P6SM FEW006 BKN045
     FM231400 00000KT P6SM SCT035
     FM231700 27005KT P6SM VCSH SCT035 BKN050
     FM240000 00000KT P6SM SCT040 SCT080
     FM240900 00000KT P6SM BKN025=



000
FTUS42 KFFC 231100
TAFMCN
TAF
KMCN 231127Z 2312/2412 00000KT P6SM FEW006 SCT030
     FM231400 00000KT P6SM SCT035
     FM231700 25004KT P6SM VCSH SCT035 BKN050
     FM240000 00000KT P6SM SCT120=



000
FTUS42 KFFC 231100
TAFFTY
TAF
KFTY 231127Z 2312/2412 00000KT P6SM FEW006 SCT035
     FM231400 00000KT P6SM SCT035
     FM231700 26005KT P6SM VCSH SCT035 BKN050
     FM240000 00000KT P6SM SCT040 SCT080
     FM240900 00000KT P6SM SCT020=



000
FTUS42 KFFC 230900 AAB
TAFAHN
TAF AMD
KAHN 230955Z 2310/2406 00000KT 5SM BR SCT007 BKN035
      TEMPO 2310/2314 OVC007
     FM231400 00000KT P6SM BKN035
     FM231700 25005KT P6SM VCSH SCT035 BKN050 PROB30 2319/2323 4SM
      -TSRA BR BKN035CB
     FM240000 25003KT P6SM SCT040 SCT080=



000
FTUS42 KFFC 230900 AAA
TAFPDK
TAF AMD
KPDK 230954Z 2310/2406 00000KT P6SM SCT006 BKN040
      TEMPO 2310/2314 BKN006
     FM231400 00000KT P6SM SCT025
     FM231700 27005KT P6SM VCSH SCT035 BKN050
     FM240000 00000KT P6SM SCT040 SCT080=



000
FTUS42 KFFC 230900 AAB
TAFATL
TAF AMD
KATL 230953Z 2310/2412 14003KT P6SM SCT006 BKN035
      TEMPO 2310/2314 BKN006
     FM231400 27004KT P6SM SCT025
     FM231700 26006KT P6SM VCSH SCT035 BKN050
     FM240000 29005KT P6SM SCT040 SCT080
     FM240900 27005KT P6SM SCT020=



000
FTUS42 KFFC 230700 AAA
TAFFTY
TAF AMD
KFTY 230757Z 2308/2406 00000KT P6SM FEW015 BKN035
     FM230900 00000KT P6SM SCT006 BKN035
      TEMPO 2310/2314 BKN006
     FM231400 00000KT P6SM SCT025
     FM231700 26005KT P6SM VCSH SCT035 BKN050 PROB30 2319/2323 4SM
      -TSRA BR BKN035CB
     FM240000 00000KT P6SM SCT040 SCT080=



000
FTUS42 KFFC 230700 AAA
TAFAHN
TAF AMD
KAHN 230756Z 2308/2406 00000KT 5SM BR OVC007
      TEMPO 2310/2314 SCT007 BKN025
     FM231400 00000KT P6SM BKN025
     FM231700 25005KT P6SM VCSH SCT035 BKN050 PROB30 2319/2323 4SM
      -TSRA BR BKN035CB
     FM240000 25003KT P6SM SCT040 SCT080=



000
FTUS42 KFFC 230700 AAA
TAFATL
TAF AMD
KATL 230746Z 2308/2412 09003KT P6SM FEW015 BKN035
     FM230900 00000KT P6SM SCT006 BKN035
      TEMPO 2310/2314 BKN006
     FM231400 27004KT P6SM SCT025
     FM231700 26006KT P6SM VCSH SCT035 BKN050 PROB30 2319/2323 4SM
      -TSRA BR BKN035CB
     FM240000 29005KT P6SM SCT040 SCT080
     FM240900 27005KT P6SM SCT020=



000
FTUS42 KFFC 230500
TAFATL
TAF
KATL 230526Z 2306/2412 09003KT P6SM FEW015 SCT100
     FM230900 00000KT P6SM SCT006 SCT080
      TEMPO 2310/2314 BKN006
     FM231400 27004KT P6SM SCT025
     FM231700 26006KT P6SM VCSH SCT035 BKN050 PROB30 2319/2323 4SM
      -TSRA BR BKN035CB
     FM240000 29005KT P6SM SCT040 SCT080
     FM240900 27005KT P6SM SCT020=



000
FTUS42 KFFC 230500
TAFPDK
TAF
KPDK 230526Z 2306/2406 00000KT P6SM VCSH FEW015 SCT035
     FM230900 00000KT P6SM SCT006 SCT080
      TEMPO 2310/2314 BKN006
     FM231400 00000KT P6SM SCT025
     FM231700 27005KT P6SM VCSH SCT035 BKN050 PROB30 2319/2323 4SM
      -TSRA BR BKN035CB
     FM240000 00000KT P6SM SCT040 SCT080=



000
FTUS42 KFFC 230500
TAFMCN
TAF
KMCN 230526Z 2306/2406 00000KT P6SM VCSH SCT035
     FM230900 00000KT 5SM BR SCT008 SCT030
      TEMPO 2310/2314 BKN008
     FM231400 00000KT P6SM SCT025
     FM231700 25004KT P6SM VCSH SCT035 BKN050
     FM240000 00000KT P6SM SCT120=



000
FTUS42 KFFC 230500
TAFCSG
TAF
KCSG 230526Z 2306/2406 00000KT P6SM SCT120
     FM230900 00000KT P6SM SCT008 SCT030
      TEMPO 2310/2314 BKN008
     FM231400 23003KT P6SM SCT025
     FM231700 25005KT P6SM VCSH SCT035 BKN050
     FM240000 00000KT P6SM SCT120=



000
FTUS42 KFFC 230500
TAFFTY
TAF
KFTY 230526Z 2306/2406 00000KT P6SM VCSH FEW015 SCT035
     FM230900 00000KT P6SM SCT006 SCT080
      TEMPO 2310/2314 BKN006
     FM231400 00000KT P6SM SCT025
     FM231700 26005KT P6SM VCSH SCT035 BKN050 PROB30 2319/2323 4SM
      -TSRA BR BKN035CB
     FM240000 00000KT P6SM SCT040 SCT080=



000
FTUS42 KFFC 230500
TAFRYY
TAF
KRYY 230526Z 2306/2406 00000KT P6SM VCSH FEW015 SCT035
     FM230900 00000KT P6SM SCT006 SCT080
      TEMPO 2310/2314 BKN006
     FM231400 00000KT P6SM SCT025
     FM231700 27005KT P6SM VCSH SCT035 BKN050 PROB30 2319/2323 4SM
      -TSRA BR BKN035CB
     FM240000 00000KT P6SM SCT040 SCT080
      AMD NOT SKED TIL 231200=



000
FTUS42 KFFC 230500
TAFAHN
TAF
KAHN 230526Z 2306/2406 00000KT P6SM FEW015 SCT090
     FM230900 00000KT 5SM BR SCT006 SCT080
      TEMPO 2310/2314 BKN006
     FM231400 00000KT P6SM BKN025
     FM231700 25005KT P6SM VCSH SCT035 BKN050 PROB30 2319/2323 4SM
      -TSRA BR BKN035CB
     FM240000 25003KT P6SM SCT040 SCT080=



000
FTUS42 KFFC 230300 AAB
TAFATL
TAF AMD
KATL 230349Z 2304/2406 09004KT P6SM BKN100
     FM230600 09005KT P6SM SCT015 BKN080
     FM230900 VRB03KT P6SM BKN006
     FM231400 27004KT P6SM BKN020
     FM231700 25007KT P6SM VCSH SCT035 BKN050 PROB30 2319/2323 4SM
      -TSRA BR BKN035CB
     FM240000 25006KT P6SM SCT040 SCT080=



000
FTUS42 KFFC 230300 AAB
TAFATL
TAF AMD
KATL 230349Z 2304/2406 09004KT P6SM BKN100
     FM230600 09005KT P6SM SCT015 BKN080
     FM230900 VRB03KT P6SM BKN006
     FM231400 27004KT P6SM BKN020
     FM231700 25007KT P6SM VCSH SCT035 BKN050 PROB30 2319/2323 4SM
      -TSRA BR BKN035CB
     FM240000 25006KT P6SM SCT040 SCT080=



000
FTUS42 KFFC 230100 AAA
TAFATL
TAF AMD
KATL 230157Z 2302/2406 09004KT P6SM VCSH SCT025 BKN080
     FM230400 09005KT P6SM SCT015 BKN080
     FM230900 VRB03KT P6SM BKN006
     FM231400 27004KT P6SM BKN020
     FM231700 25007KT P6SM VCSH SCT035 BKN050 PROB30 2319/2323 4SM
      -TSRA BR BKN035CB
     FM240000 25006KT P6SM SCT040 SCT080=



000
FTUS42 KFFC 222300
TAFPDK
TAF
KPDK 222335Z 2300/2324 09004KT P6SM FEW035 BKN100
     FM230400 09005KT P6SM SCT015 BKN080
     FM230900 VRB03KT P6SM BKN006
     FM231400 27004KT P6SM BKN020
     FM231700 25007KT P6SM VCSH SCT035 BKN050 PROB30 2319/2323 4SM
      -TSRA BR BKN035CB=



000
FTUS42 KFFC 222300
TAFFTY
TAF
KFTY 222335Z 2300/2324 VRB03KT P6SM FEW035 BKN100
     FM230400 09005KT P6SM SCT015 BKN080
     FM230900 VRB03KT P6SM BKN006
     FM231400 27004KT P6SM BKN020
     FM231700 25007KT P6SM VCSH SCT035 BKN050 PROB30 2319/2323 4SM
      -TSRA BR BKN035CB=



000
FTUS42 KFFC 222300
TAFAHN
TAF
KAHN 222335Z 2300/2324 06004KT P6SM SCT035 SCT080
     FM230600 00000KT 3SM BR BKN006
     FM231400 27003KT P6SM BKN020
     FM231700 25007KT P6SM VCSH SCT035 BKN050 PROB30 2319/2323 4SM
      -TSRA BR BKN035CB=



000
FTUS42 KFFC 222300
TAFCSG
TAF
KCSG 222335Z 2300/2324 02006KT P6SM SCT035 BKN080
     FM230200 VRB03KT P6SM SCT020 BKN080
     FM230700 00000KT 5SM BR BKN006
     FM231400 23003KT P6SM BKN020
     FM231700 25007KT P6SM VCSH SCT035 BKN050 PROB30 2319/2323 4SM
      -TSRA BR BKN035CB=



000
FTUS42 KFFC 222300
TAFATL
TAF
KATL 222335Z 2300/2406 09008KT P6SM VCSH SCT030 BKN080
     FM230400 09005KT P6SM SCT015 BKN080
     FM230900 VRB03KT P6SM BKN006
     FM231400 27004KT P6SM BKN020
     FM231700 25007KT P6SM VCSH SCT035 BKN050 PROB30 2319/2323 4SM
      -TSRA BR BKN035CB
     FM240000 25006KT P6SM SCT040 SCT080=



000
FTUS42 KFFC 222300
TAFMCN
TAF
KMCN 222335Z 2300/2324 11005KT P6SM BKN035
     FM230700 00000KT 4SM BR BKN006
     FM231400 23003KT P6SM BKN020
     FM231700 25007KT P6SM VCSH SCT035 BKN050 PROB30 2319/2323 4SM
      -TSRA BR BKN035CB=



000
FTUS42 KFFC 222300
TAFRYY
TAF
KRYY 222335Z 2300/2324 11005KT P6SM FEW035 SCT060
     FM230400 09005KT P6SM SCT015 BKN080
     FM230900 VRB03KT P6SM BKN006
     FM231400 27004KT P6SM BKN020
     FM231700 25007KT P6SM VCSH SCT035 BKN050 PROB30 2319/2323 4SM
      -TSRA BR BKN035CB
      AMD NOT SKED 2304/2312=



000
FTUS42 KFFC 222100 AAB
TAFATL
TAF AMD
KATL 222156Z 2222/2324 11006KT P6SM VCSH SCT030 BKN050
     FM230100 09005KT P6SM SCT035 BKN080
     FM230900 13003KT P6SM BKN006
     FM231400 27003KT P6SM BKN020
     FM231700 25007KT P6SM VCSH SCT035 BKN050 PROB30 2319/2323 4SM
      -TSRA BR BKN035CB=



000
FTUS42 KFFC 221900 AAA
TAFATL
TAF AMD
KATL 221950Z 2220/2324 11006KT P6SM VCSH SCT030 BKN050
      TEMPO 2220/2223 4SM -SHRA BKN030
     FM230000 09005KT P6SM SCT035 BKN080
     FM230900 13003KT P6SM BKN006
     FM231400 27003KT P6SM BKN020
     FM231700 25007KT P6SM VCSH SCT035 BKN050 PROB30 2319/2323 4SM
      -TSRA BR BKN035CB=



    US Dept of Commerce
    National Oceanic and Atmospheric Administration
    National Weather Service
    1325 East West Highway
    Silver Spring, MD 20910
    Page Author: NWS Internet Services Team
Disclaimer
Information Quality
Credits
Glossary
Privacy Policy
Freedom of Information Act (FOIA)
About Us
Career Opportunities